createdAt,value
2023-03-12T00:01:52.857Z,6.35
2023-03-12T00:04:27.738Z,4.55
2023-03-12T00:07:01.022Z,2.90
2023-03-12T00:09:36.806Z,4.68
2023-03-12T00:12:10.853Z,4.90
2023-03-12T00:14:44.152Z,6.40
2023-03-12T00:17:17.531Z,2.60
2023-03-12T00:19:54.858Z,7.10
2023-03-12T00:22:28.451Z,4.88
2023-03-12T00:25:01.798Z,3.63
2023-03-12T00:27:35.069Z,5.03
2023-03-12T00:30:10.391Z,4.25
2023-03-12T00:32:43.728Z,3.80
2023-03-12T00:35:18.552Z,3.70
2023-03-12T00:37:51.849Z,5.57
2023-03-12T00:40:25.231Z,5.38
2023-03-12T00:42:58.502Z,3.63
2023-03-12T00:45:31.766Z,7.07
2023-03-12T00:48:05.352Z,5.05
2023-03-12T00:50:40.048Z,4.15
2023-03-12T00:53:13.508Z,2.97
2023-03-12T00:55:46.870Z,7.60
2023-03-12T00:58:20.246Z,5.35
2023-03-12T01:00:53.723Z,6.88
2023-03-12T01:03:27.255Z,8.07
2023-03-12T01:06:01.989Z,3.60
2023-03-12T01:08:36.154Z,5.63
2023-03-12T01:11:13.426Z,3.05
2023-03-12T01:13:47.178Z,3.17
2023-03-12T01:18:53.689Z,4.03
2023-03-12T01:21:28.919Z,3.63
2023-03-12T01:24:02.323Z,2.85
2023-03-12T01:26:35.681Z,4.97
2023-03-12T01:29:08.943Z,4.50
2023-03-12T01:31:42.242Z,6.95
2023-03-12T01:34:15.772Z,4.13
2023-03-12T01:36:50.445Z,7.00
2023-03-12T01:39:25.685Z,5.53
2023-03-12T01:41:59.054Z,3.58
2023-03-12T01:44:32.473Z,6.55
2023-03-12T01:47:06.134Z,7.22
2023-03-12T01:52:16.000Z,4.32
2023-03-12T01:55:01.043Z,3.38
2023-03-12T01:57:39.115Z,3.53
2023-03-12T02:00:16.095Z,3.42
2023-03-12T02:02:50.623Z,4.55
2023-03-12T02:05:34.585Z,2.97
2023-03-12T02:08:09.349Z,8.45
2023-03-12T02:10:42.789Z,3.03
2023-03-12T02:13:16.330Z,4.97
2023-03-12T02:15:52.596Z,4.75
2023-03-12T02:18:26.651Z,3.72
2023-03-12T02:21:11.486Z,4.50
2023-03-12T02:23:52.325Z,4.60
2023-03-12T02:26:29.899Z,5.95
2023-03-12T02:29:04.924Z,3.83
2023-03-12T02:31:43.310Z,4.72
2023-03-12T02:34:17.141Z,8.10
2023-03-12T02:36:50.988Z,4.80
2023-03-12T02:39:24.781Z,4.47
2023-03-12T02:44:36.560Z,3.85
2023-03-12T02:47:09.866Z,5.03
2023-03-12T02:49:43.206Z,6.95
2023-03-12T02:52:16.608Z,5.28
2023-03-12T02:54:49.911Z,4.55
2023-03-12T02:57:25.636Z,4.03
2023-03-12T02:59:58.946Z,4.97
2023-03-12T03:02:32.446Z,4.70
2023-03-12T03:05:06.366Z,5.65
2023-03-12T03:07:39.901Z,3.47
2023-03-12T03:10:13.360Z,5.00
2023-03-12T03:12:48.107Z,5.28
2023-03-12T03:15:21.467Z,7.07
2023-03-12T03:17:54.870Z,4.25
2023-03-12T03:20:28.213Z,5.43
2023-03-12T03:23:01.563Z,3.40
2023-03-12T03:25:35.476Z,5.15
2023-03-12T03:28:10.223Z,5.43
2023-03-12T03:30:43.821Z,4.55
2023-03-12T03:33:17.303Z,2.88
2023-03-12T03:35:50.838Z,4.82
2023-03-12T03:40:57.793Z,5.10
2023-03-12T03:43:33.071Z,5.32
2023-03-12T03:46:07.410Z,8.70
2023-03-12T03:48:44.847Z,4.55
2023-03-12T03:51:19.163Z,4.40
2023-03-12T03:53:57.091Z,4.47
2023-03-12T03:56:30.551Z,4.32
2023-03-12T03:59:07.140Z,5.35
2023-03-12T04:01:43.851Z,4.07
2023-03-12T04:04:17.226Z,3.65
2023-03-12T04:06:50.503Z,5.13
2023-03-12T04:09:23.824Z,6.78
2023-03-12T04:11:57.252Z,5.82
2023-03-12T04:14:31.973Z,4.07
2023-03-12T04:17:05.782Z,5.07
2023-03-12T04:19:39.146Z,4.90
2023-03-12T04:24:46.040Z,7.90
2023-03-12T04:27:19.370Z,5.07
2023-03-12T04:29:54.128Z,3.15
2023-03-12T04:32:28.227Z,4.18
2023-03-12T04:35:01.560Z,2.80
2023-03-12T04:37:35.246Z,5.35
2023-03-12T04:40:11.820Z,2.03
2023-03-12T04:42:45.112Z,6.65
2023-03-12T04:45:20.284Z,3.35
2023-03-12T04:47:54.003Z,4.90
2023-03-12T04:50:27.332Z,6.55
2023-03-12T04:53:00.742Z,5.22
2023-03-12T04:55:34.520Z,3.40
2023-03-12T04:58:07.832Z,12.35
2023-03-12T05:00:42.822Z,2.70
2023-03-12T05:03:16.705Z,3.15
2023-03-12T05:05:51.848Z,5.50
2023-03-12T05:08:25.171Z,8.00
2023-03-12T05:10:58.752Z,3.20
2023-03-12T05:13:33.016Z,3.22
2023-03-12T05:16:09.001Z,3.92
2023-03-12T05:18:42.400Z,5.82
2023-03-12T05:23:50.743Z,4.63
2023-03-12T05:26:26.038Z,3.47
2023-03-12T05:29:05.177Z,7.13
2023-03-12T05:31:41.007Z,4.18
2023-03-12T05:34:15.840Z,3.13
2023-03-12T05:36:51.324Z,6.25
2023-03-12T05:39:29.027Z,4.00
2023-03-12T05:42:06.576Z,6.80
2023-03-12T05:44:40.766Z,3.40
2023-03-12T05:47:17.224Z,3.47
2023-03-12T05:49:50.674Z,4.50
2023-03-12T05:52:24.050Z,5.53
2023-03-12T05:54:57.513Z,5.30
2023-03-12T05:57:31.206Z,2.92
2023-03-12T06:00:07.496Z,6.97
2023-03-12T06:02:48.145Z,7.38
2023-03-12T06:05:21.640Z,4.20
2023-03-12T06:07:54.969Z,5.63
2023-03-12T06:10:28.686Z,8.95
2023-03-12T06:13:02.417Z,3.92
2023-03-12T06:15:35.850Z,4.03
2023-03-12T06:18:12.433Z,6.05
2023-03-12T06:20:45.784Z,3.72
2023-03-12T06:23:21.480Z,8.32
2023-03-12T06:25:54.908Z,2.58
2023-03-12T06:28:28.324Z,2.20
2023-03-12T06:31:01.659Z,4.63
2023-03-12T06:33:37.025Z,10.05
2023-03-12T06:36:11.691Z,6.60
2023-03-12T06:38:45.062Z,5.32
2023-03-12T06:41:21.009Z,8.20
2023-03-12T06:43:54.611Z,9.05
2023-03-12T06:46:28.109Z,7.32
2023-03-12T06:49:03.760Z,11.50
2023-03-12T06:51:37.067Z,7.82
2023-03-12T06:54:10.355Z,12.52
2023-03-12T06:56:43.734Z,8.73
2023-03-12T06:59:18.393Z,18.30
2023-03-12T07:01:51.838Z,16.88
2023-03-12T07:04:26.808Z,13.90
2023-03-12T07:07:00.370Z,33.75
2023-03-12T07:09:36.370Z,48.90
2023-03-12T07:12:13.059Z,63.60
2023-03-12T07:14:46.411Z,166.43
2023-03-12T07:17:19.730Z,263.20
2023-03-12T07:19:54.450Z,279.25
2023-03-12T07:22:27.792Z,323.65
2023-03-12T07:25:01.642Z,297.45
2023-03-12T07:27:35.020Z,304.77
2023-03-12T07:30:09.715Z,280.48
2023-03-12T07:32:43.070Z,267.63
2023-03-12T07:35:17.982Z,215.10
2023-03-12T07:37:51.370Z,222.35
2023-03-12T07:40:24.688Z,212.38
2023-03-12T07:42:58.157Z,181.00
2023-03-12T07:45:32.662Z,158.90
2023-03-12T07:48:06.801Z,151.20
2023-03-12T07:50:42.415Z,143.38
2023-03-12T07:53:15.872Z,43.08
2023-03-12T07:55:50.211Z,14.40
2023-03-12T07:58:23.825Z,7.97
2023-03-12T08:00:57.892Z,9.07
2023-03-12T08:03:31.588Z,3.97
2023-03-12T08:08:42.405Z,5.90
2023-03-12T08:11:15.753Z,5.43
2023-03-12T08:13:49.036Z,5.38
2023-03-12T08:16:22.422Z,6.07
2023-03-12T08:18:55.789Z,6.95
2023-03-12T08:21:30.473Z,3.55
2023-03-12T08:24:03.830Z,3.45
2023-03-12T08:26:37.173Z,5.15
2023-03-12T08:29:10.874Z,5.13
2023-03-12T08:34:37.328Z,5.05
2023-03-12T08:37:12.071Z,7.95
2023-03-12T08:39:45.398Z,16.92
2023-03-12T08:42:18.729Z,10.98
2023-03-12T08:44:52.025Z,17.80
2023-03-12T08:47:25.307Z,11.25
2023-03-12T08:49:58.600Z,16.35
2023-03-12T08:52:33.291Z,15.23
2023-03-12T08:55:07.453Z,16.50
2023-03-12T08:57:40.961Z,18.08
2023-03-12T09:00:16.253Z,16.17
2023-03-12T09:02:52.131Z,16.00
2023-03-12T09:05:26.177Z,14.50
2023-03-12T09:13:07.874Z,62.72
2023-03-12T09:15:41.179Z,428.98
2023-03-12T09:18:14.500Z,335.17
2023-03-12T09:20:47.883Z,199.40
2023-03-12T09:23:22.646Z,171.43
2023-03-12T09:25:56.375Z,164.23
2023-03-12T09:31:03.179Z,121.72
2023-03-12T09:33:36.490Z,122.15
2023-03-12T09:36:10.260Z,122.70
2023-03-12T09:43:58.172Z,92.28
2023-03-12T09:46:38.181Z,95.40
2023-03-12T09:49:18.806Z,83.97
2023-03-12T09:51:56.522Z,87.70
2023-03-12T09:54:37.687Z,85.20
2023-03-12T09:57:15.438Z,70.32
2023-03-12T09:59:48.765Z,89.80
2023-03-12T10:02:44.350Z,58.72
2023-03-12T10:05:24.064Z,72.95
2023-03-12T10:08:10.542Z,72.15
2023-03-12T10:11:03.127Z,77.72
2023-03-12T10:13:58.747Z,69.85
2023-03-12T10:16:45.695Z,57.53
2023-03-12T10:19:38.401Z,68.18
2023-03-12T10:22:20.478Z,54.10
2023-03-12T10:25:01.944Z,61.55
2023-03-12T10:27:37.648Z,67.50
2023-03-12T10:30:19.350Z,53.92
2023-03-12T10:32:57.347Z,67.82
2023-03-12T10:35:31.837Z,57.10
2023-03-12T10:38:06.798Z,65.85
2023-03-12T10:40:42.272Z,45.22
2023-03-12T10:43:17.013Z,47.40
2023-03-12T10:46:00.941Z,51.30
2023-03-12T10:48:34.282Z,46.50
2023-03-12T10:51:09.413Z,45.70
2023-03-12T10:53:45.037Z,46.30
2023-03-12T10:56:20.313Z,42.10
2023-03-12T10:58:55.770Z,32.08
2023-03-12T11:01:31.883Z,37.88
2023-03-12T11:04:18.567Z,45.00
2023-03-12T11:07:20.506Z,33.30
2023-03-12T11:10:19.277Z,36.45
2023-03-12T11:13:03.238Z,44.58
2023-03-12T11:15:43.153Z,37.80
2023-03-12T11:18:26.411Z,30.67
2023-03-12T11:21:14.957Z,29.33
2023-03-12T11:24:07.330Z,33.03
2023-03-12T11:26:50.628Z,30.65
2023-03-12T11:29:29.583Z,29.67
2023-03-12T11:32:11.756Z,31.77
2023-03-12T11:34:47.720Z,31.33
2023-03-12T11:37:31.324Z,34.45
2023-03-12T11:40:19.579Z,26.08
2023-03-12T11:43:16.237Z,32.58
2023-03-12T11:46:00.613Z,27.75
2023-03-12T11:48:42.233Z,28.48
2023-03-12T11:51:28.942Z,27.52
2023-03-12T11:54:23.719Z,29.27
2023-03-12T11:57:01.230Z,22.70
2023-03-12T11:59:50.728Z,21.35
2023-03-12T12:02:41.876Z,23.48
2023-03-12T12:05:37.007Z,19.67
2023-03-12T12:08:24.252Z,21.63
2023-03-12T12:11:06.991Z,24.83
2023-03-12T12:13:51.375Z,19.30
2023-03-12T12:16:40.646Z,24.58
2023-03-12T12:19:25.108Z,26.48
2023-03-12T12:22:12.850Z,24.65
2023-03-12T12:25:07.158Z,23.65
2023-03-12T12:27:45.609Z,19.67
2023-03-12T12:30:26.852Z,16.98
2023-03-12T12:33:15.716Z,16.52
2023-03-12T12:35:49.514Z,15.75
2023-03-12T12:41:10.553Z,18.73
2023-03-12T12:43:48.327Z,21.05
2023-03-12T12:46:25.668Z,16.00
2023-03-12T12:49:04.332Z,17.77
2023-03-12T12:51:42.825Z,18.13
2023-03-12T12:54:25.619Z,17.48
2023-03-12T12:57:06.404Z,17.55
2023-03-12T12:59:43.354Z,17.10
2023-03-12T13:02:20.318Z,15.23
2023-03-12T13:04:57.703Z,16.45
2023-03-12T13:07:37.859Z,16.75
2023-03-12T13:10:48.925Z,13.77
2023-03-12T13:13:31.749Z,14.40
2023-03-12T13:16:20.525Z,12.65
2023-03-12T13:19:01.300Z,15.77
2023-03-12T13:21:40.691Z,13.00
2023-03-12T13:24:22.387Z,13.70
2023-03-12T13:27:04.020Z,15.43
2023-03-12T13:29:40.311Z,12.13
2023-03-12T13:32:39.172Z,13.30
2023-03-12T13:35:30.935Z,17.25
2023-03-12T13:38:07.144Z,13.45
2023-03-12T13:41:05.821Z,14.27
2023-03-12T13:43:54.639Z,10.85
2023-03-12T13:46:43.542Z,10.88
2023-03-12T13:49:21.891Z,11.35
2023-03-12T13:52:02.258Z,11.88
2023-03-12T13:54:41.700Z,13.43
2023-03-12T13:57:27.303Z,11.65
2023-03-12T14:00:05.814Z,11.35
2023-03-12T14:02:49.503Z,11.38
2023-03-12T14:05:23.281Z,10.77
2023-03-12T14:08:23.763Z,12.13
2023-03-12T14:11:22.072Z,11.65
2023-03-12T14:14:21.296Z,9.95
2023-03-12T14:17:00.995Z,9.70
2023-03-12T14:19:36.998Z,8.50
2023-03-12T14:22:14.456Z,12.13
2023-03-12T14:24:51.535Z,12.13
2023-03-12T14:27:28.478Z,10.25
2023-03-12T14:30:12.827Z,9.65
2023-03-12T14:32:48.997Z,11.82
2023-03-12T14:35:25.932Z,9.18
2023-03-12T14:38:04.844Z,11.30
2023-03-12T14:40:44.342Z,8.45
2023-03-12T14:43:21.951Z,9.23
2023-03-12T14:45:59.950Z,6.03
2023-03-12T14:48:37.000Z,8.70
2023-03-12T14:51:23.960Z,9.10
2023-03-12T14:54:03.346Z,8.13
2023-03-12T14:56:36.755Z,9.32
2023-03-12T14:59:27.864Z,7.80
2023-03-12T15:02:05.229Z,8.23
2023-03-12T15:04:40.471Z,8.48
2023-03-12T15:07:17.562Z,8.68
2023-03-12T15:09:54.006Z,7.00
2023-03-12T15:12:30.487Z,8.90
2023-03-12T15:15:08.289Z,8.07
2023-03-12T15:17:41.718Z,8.82
2023-03-12T15:20:18.081Z,8.52
2023-03-12T15:22:52.816Z,6.45
2023-03-12T15:25:28.955Z,4.45
2023-03-12T15:28:04.976Z,9.20
2023-03-12T15:30:40.258Z,7.70
2023-03-12T15:33:26.286Z,8.65
2023-03-12T15:36:03.991Z,6.57
2023-03-12T15:38:39.317Z,8.05
2023-03-12T15:41:21.863Z,6.65
2023-03-12T15:43:57.565Z,10.23
2023-03-12T15:46:31.035Z,6.40
2023-03-12T15:49:04.514Z,8.05
2023-03-12T15:51:40.510Z,5.63
2023-03-12T15:54:27.301Z,6.82
2023-03-12T15:57:21.149Z,6.55
2023-03-12T16:00:18.704Z,7.32
2023-03-12T16:02:54.822Z,6.43
2023-03-12T16:05:31.870Z,5.60
2023-03-12T16:08:16.102Z,6.32
2023-03-12T16:10:51.088Z,4.72
2023-03-12T16:13:31.084Z,6.85
2023-03-12T16:16:04.617Z,6.40
2023-03-12T16:18:37.946Z,6.30
2023-03-12T16:21:12.941Z,7.43
2023-03-12T16:23:47.738Z,6.20
2023-03-12T16:26:22.470Z,6.53
2023-03-12T16:28:55.932Z,8.05
2023-03-12T16:31:29.288Z,10.13
2023-03-12T16:34:02.639Z,5.35
2023-03-12T16:36:35.918Z,6.00
2023-03-12T16:39:10.570Z,6.35
2023-03-12T16:41:44.127Z,5.63
2023-03-12T16:44:21.052Z,5.38
2023-03-12T16:46:54.469Z,7.60
2023-03-12T16:49:27.914Z,5.22
2023-03-12T16:52:01.419Z,6.05
2023-03-12T16:54:36.087Z,7.18
2023-03-12T16:57:27.978Z,5.68
2023-03-12T17:00:01.964Z,7.15
2023-03-12T17:02:35.643Z,5.35
2023-03-12T17:05:09.579Z,6.90
2023-03-12T17:07:42.859Z,4.93
2023-03-12T17:10:18.294Z,8.30
2023-03-12T17:12:51.962Z,5.68
2023-03-12T17:15:30.616Z,7.40
2023-03-12T17:18:04.481Z,6.28
2023-03-12T17:23:11.414Z,7.43
2023-03-12T17:28:20.217Z,5.55
2023-03-12T17:30:53.828Z,6.53
2023-03-12T17:33:27.892Z,10.07
2023-03-12T17:36:03.459Z,5.13
2023-03-12T17:38:37.448Z,5.50
2023-03-12T17:41:25.397Z,8.25
2023-03-12T17:44:02.106Z,6.22
2023-03-12T17:46:39.199Z,7.93
2023-03-12T17:49:14.191Z,6.10
2023-03-12T17:51:47.888Z,7.72
2023-03-12T17:56:57.649Z,7.18
2023-03-12T17:59:32.300Z,8.50
2023-03-12T18:02:06.149Z,9.55
2023-03-12T18:07:13.651Z,8.57
2023-03-12T18:09:47.007Z,9.48
2023-03-12T18:12:22.336Z,8.63
2023-03-12T18:14:55.745Z,8.88
2023-03-12T18:17:29.452Z,7.50
2023-03-12T18:20:08.272Z,7.50
2023-03-12T18:22:42.182Z,7.05
2023-03-12T18:25:16.229Z,9.07
2023-03-12T18:27:50.968Z,9.52
2023-03-12T18:30:24.308Z,7.93
2023-03-12T18:32:57.919Z,11.18
2023-03-12T18:35:31.662Z,7.65
2023-03-12T18:38:05.083Z,9.90
2023-03-12T18:40:38.520Z,10.02
2023-03-12T18:43:14.213Z,13.68
2023-03-12T18:45:47.505Z,17.90
2023-03-12T18:48:22.063Z,11.75
2023-03-12T18:50:55.589Z,9.50
2023-03-12T18:53:28.985Z,14.55
2023-03-12T18:56:02.892Z,9.80
2023-03-12T19:03:44.188Z,15.30
2023-03-12T19:06:18.330Z,20.00
2023-03-12T19:08:51.725Z,16.42
2023-03-12T19:11:26.372Z,13.77
2023-03-12T19:14:03.241Z,16.33
2023-03-12T19:16:36.857Z,16.80
2023-03-12T19:19:10.550Z,28.88
2023-03-12T19:21:44.171Z,22.48
2023-03-12T19:24:17.625Z,13.90
2023-03-12T19:26:50.965Z,17.73
2023-03-12T19:29:26.686Z,13.10
2023-03-12T19:32:00.028Z,9.63
2023-03-12T19:34:33.497Z,10.50
2023-03-12T19:37:07.162Z,12.57
2023-03-12T19:39:40.671Z,8.77
2023-03-12T19:42:14.718Z,16.80
2023-03-12T19:44:51.727Z,10.48
2023-03-12T19:47:26.717Z,10.65
2023-03-12T19:50:00.733Z,13.13
2023-03-12T19:52:34.165Z,19.00
2023-03-12T19:55:08.934Z,11.02
2023-03-12T19:57:43.580Z,12.07
2023-03-12T20:00:24.482Z,13.23
2023-03-12T20:03:02.416Z,12.45
2023-03-12T20:05:36.324Z,13.20
2023-03-12T20:10:43.863Z,10.57
2023-03-12T20:13:18.797Z,17.30
2023-03-12T20:15:53.744Z,16.98
2023-03-12T20:18:30.297Z,11.98
2023-03-12T20:21:03.837Z,13.13
2023-03-12T20:23:37.561Z,14.23
2023-03-12T20:26:10.928Z,13.00
2023-03-12T20:28:44.598Z,12.88
2023-03-12T20:31:20.211Z,12.93
2023-03-12T20:33:53.649Z,16.15
2023-03-12T20:36:27.051Z,14.55
2023-03-12T20:39:00.613Z,17.67
2023-03-12T20:41:34.414Z,13.25
2023-03-12T20:46:42.622Z,14.20
2023-03-12T20:49:16.197Z,10.75
2023-03-12T20:51:49.795Z,12.27
2023-03-12T20:54:23.393Z,12.23
2023-03-12T20:56:56.804Z,13.02
2023-03-12T20:59:30.349Z,13.02
2023-03-12T21:02:05.504Z,15.63
2023-03-12T21:04:40.145Z,11.77
2023-03-12T21:07:13.799Z,15.30
2023-03-12T21:09:47.184Z,14.23
2023-03-12T21:12:20.718Z,12.30
2023-03-12T21:14:54.135Z,13.70
2023-03-12T21:17:33.777Z,12.73
2023-03-12T21:20:10.010Z,15.45
2023-03-12T21:22:44.488Z,10.70
2023-03-12T21:25:18.120Z,12.73
2023-03-12T21:27:52.058Z,13.25
2023-03-12T21:30:25.695Z,13.77
2023-03-12T21:33:01.525Z,12.73
2023-03-12T21:35:34.906Z,9.32
2023-03-12T21:38:08.560Z,16.42
2023-03-12T21:40:42.037Z,12.07
2023-03-12T21:43:17.242Z,9.68
2023-03-12T21:45:50.979Z,9.93
2023-03-12T21:51:03.098Z,10.25
2023-03-12T21:53:37.229Z,12.60
2023-03-12T21:56:13.827Z,11.57
2023-03-12T21:58:47.170Z,10.93
2023-03-12T22:01:20.745Z,13.95
2023-03-12T22:03:55.515Z,12.75
2023-03-12T22:06:28.893Z,10.82
2023-03-12T22:09:02.274Z,10.30
2023-03-12T22:11:35.716Z,14.05
2023-03-12T22:14:09.248Z,11.52
2023-03-12T22:16:43.013Z,9.70
2023-03-12T22:19:19.195Z,8.75
2023-03-12T22:21:52.499Z,10.40
2023-03-12T22:24:25.975Z,11.32
2023-03-12T22:26:59.297Z,6.75
2023-03-12T22:29:32.821Z,12.85
2023-03-12T22:32:06.603Z,10.07
2023-03-12T22:34:41.410Z,16.25
2023-03-12T22:37:14.693Z,10.23
2023-03-12T22:39:48.009Z,10.27
2023-03-12T22:42:21.297Z,9.65
2023-03-12T22:44:54.940Z,11.15
2023-03-12T22:47:28.236Z,9.10
2023-03-12T22:50:03.080Z,8.85
2023-03-12T22:52:36.678Z,10.43
2023-03-12T22:55:10.539Z,10.48
2023-03-12T22:57:43.892Z,11.20
2023-03-12T23:00:22.667Z,11.43
2023-03-12T23:02:56.159Z,9.50
2023-03-12T23:05:30.953Z,11.75
2023-03-12T23:08:04.345Z,14.35
2023-03-12T23:10:37.619Z,8.07
2023-03-12T23:13:11.778Z,8.52
2023-03-12T23:15:45.104Z,8.38
2023-03-12T23:18:19.353Z,8.68
2023-03-12T23:21:00.786Z,8.00
2023-03-12T23:23:34.685Z,7.65
2023-03-12T23:26:08.012Z,9.55
2023-03-12T23:28:41.417Z,8.15
2023-03-12T23:31:15.695Z,10.48
2023-03-12T23:33:49.132Z,12.13
2023-03-12T23:36:25.191Z,8.52
2023-03-12T23:38:58.589Z,6.68
2023-03-12T23:41:32.107Z,7.75
2023-03-12T23:44:05.927Z,9.20
2023-03-12T23:46:39.275Z,9.32
2023-03-12T23:49:12.722Z,10.27
2023-03-12T23:51:47.422Z,7.93
2023-03-12T23:54:20.789Z,5.90
2023-03-12T23:56:56.164Z,9.18
2023-03-12T23:59:29.511Z,9.00
